Port Salerno, Florida
Current Conditions -  °F | °C
As of 9:15 PM on Sunday 21 Dec 2014 (Local Time) from KSUA Reporting Station
Clear Clear  
Wind Chill: 70°   Ceiling: Unl
Heat Index: 70°   Visibility: 10mi
Dew Point: 63°   Wind: 3mph
Humidity: 78%   Direction: 170°S
Pressure: 30.07"   Gusts: NA
Location:  27.15°N, 80.2°W
Report Text: KSUA 220215Z AUTO 17003KT 10SM CLR 21/17 A3007 RMK AO2 LTG DSNT W
Loading
Personal Weather Stations






























Interactive Weather Map New forecast layout! Learn more

10-Day Weather Forecast

Advertisements
Track Severe Weather on mobile